CheckWX is a tool to help pilots better visualize weather data.  It is not intended as a substitute for an official pre-flight weather briefing.

05:19:01 UTC

CBBC METAR
Bella Bella / Campbell Island Airport
Bella Bella, Canada
Current

19 mins ago

CBBC 240500Z AUTO 00000KT 9SM CLR 13/11 A3012 RMK SLP200
Observed
Jul-24 @ 05:00 UTC
Visibility
9 SM
Flight Rules
VFR
Cloud Levels
  • Clear skies
Temperature
13°C / 55°F
Dewpoint
11°C / 52°F
Humidity
88%
Altimeter
30.12" Hg
Pressure
1020.02 hPa
Previous

1 hour ago

CBBC 240400Z AUTO 29004KT 240V340 9SM CLR 16/11 A3011 RMK SLP198
Observed
Jul-24 @ 04:00 UTC
Wind
  • 290° at 4 KTS
Visibility
9 SM
Flight Rules
VFR
Cloud Levels
  • Clear skies
Temperature
16°C / 61°F
Dewpoint
11°C / 52°F
Humidity
72%
Altimeter
30.11" Hg
Pressure
1019.62 hPa
Previous

2 hours ago

CBBC 240300Z AUTO 31005KT 220V350 9SM CLR 17/11 A3010 RMK SLP196
Observed
Jul-24 @ 03:00 UTC
Wind
  • 310° at 5 KTS
Visibility
9 SM
Flight Rules
VFR
Cloud Levels
  • Clear skies
Temperature
17°C / 63°F
Dewpoint
11°C / 52°F
Humidity
68%
Altimeter
30.1" Hg
Pressure
1019.32 hPa